sensor_id;sensor_type;location;lat;lon;timestamp;noise_LAeq;noise_LA_min;noise_LA_max;noise_LA01;noise_LA95
74292;Laerm;62687;55.738;37.516;2023-02-13T00:00:57;64.50;53.86;71.95;;
74292;Laerm;62687;55.738;37.516;2023-02-13T00:03:41;64.63;55.75;71.37;;
74292;Laerm;62687;55.738;37.516;2023-02-13T00:06:26;64.21;54.76;72.15;;
74292;Laerm;62687;55.738;37.516;2023-02-13T00:09:10;64.80;53.74;74.21;;
74292;Laerm;62687;55.738;37.516;2023-02-13T00:11:54;64.46;52.70;72.98;;
74292;Laerm;62687;55.738;37.516;2023-02-13T00:14:38;62.99;49.90;70.17;;
74292;Laerm;62687;55.738;37.516;2023-02-13T00:17:23;65.47;56.19;73.90;;
74292;Laerm;62687;55.738;37.516;2023-02-13T00:20:09;64.44;53.78;73.24;;
74292;Laerm;62687;55.738;37.516;2023-02-13T00:22:53;64.47;55.53;71.83;;
74292;Laerm;62687;55.738;37.516;2023-02-13T00:25:37;64.78;54.42;72.68;;
74292;Laerm;62687;55.738;37.516;2023-02-13T00:28:21;64.49;53.48;74.21;;
74292;Laerm;62687;55.738;37.516;2023-02-13T00:31:14;63.49;54.20;71.98;;
74292;Laerm;62687;55.738;37.516;2023-02-13T00:33:58;67.54;54.72;84.85;;
74292;Laerm;62687;55.738;37.516;2023-02-13T00:36:42;63.90;53.01;70.84;;
74292;Laerm;62687;55.738;37.516;2023-02-13T00:39:27;64.19;53.83;72.91;;
74292;Laerm;62687;55.738;37.516;2023-02-13T00:42:11;64.14;55.99;71.94;;
74292;Laerm;62687;55.738;37.516;2023-02-13T00:44:55;63.58;51.54;71.49;;
74292;Laerm;62687;55.738;37.516;2023-02-13T00:47:39;62.84;53.73;70.57;;
74292;Laerm;62687;55.738;37.516;2023-02-13T00:50:23;64.84;55.42;72.54;;
74292;Laerm;62687;55.738;37.516;2023-02-13T00:53:07;64.43;52.14;74.12;;
74292;Laerm;62687;55.738;37.516;2023-02-13T00:55:51;64.92;54.80;76.93;;
74292;Laerm;62687;55.738;37.516;2023-02-13T00:58:36;62.76;50.54;70.59;;
74292;Laerm;62687;55.738;37.516;2023-02-13T01:01:20;64.17;54.86;71.64;;
74292;Laerm;62687;55.738;37.516;2023-02-13T01:04:04;64.74;52.59;71.55;;
74292;Laerm;62687;55.738;37.516;2023-02-13T01:06:49;63.65;55.90;75.08;;
74292;Laerm;62687;55.738;37.516;2023-02-13T01:09:33;63.80;53.20;72.73;;
74292;Laerm;62687;55.738;37.516;2023-02-13T01:12:16;65.33;56.61;77.49;;
74292;Laerm;62687;55.738;37.516;2023-02-13T01:15:01;66.13;54.38;75.32;;
74292;Laerm;62687;55.738;37.516;2023-02-13T01:17:46;62.65;50.66;71.14;;
74292;Laerm;62687;55.738;37.516;2023-02-13T01:20:30;64.29;54.31;72.38;;
74292;Laerm;62687;55.738;37.516;2023-02-13T01:23:14;65.61;58.05;76.65;;
74292;Laerm;62687;55.738;37.516;2023-02-13T01:25:58;63.77;53.63;72.28;;
74292;Laerm;62687;55.738;37.516;2023-02-13T01:28:43;64.91;50.36;74.24;;
74292;Laerm;62687;55.738;37.516;2023-02-13T01:31:27;65.10;55.44;72.04;;
74292;Laerm;62687;55.738;37.516;2023-02-13T01:34:11;66.01;56.75;74.52;;
74292;Laerm;62687;55.738;37.516;2023-02-13T01:36:55;65.03;54.77;72.99;;
74292;Laerm;62687;55.738;37.516;2023-02-13T01:39:39;64.77;53.62;74.47;;
74292;Laerm;62687;55.738;37.516;2023-02-13T01:42:26;65.20;57.08;72.36;;
74292;Laerm;62687;55.738;37.516;2023-02-13T01:45:24;64.47;54.68;74.33;;
74292;Laerm;62687;55.738;37.516;2023-02-13T01:48:17;65.26;53.24;72.08;;
74292;Laerm;62687;55.738;37.516;2023-02-13T01:51:10;66.00;56.60;75.12;;
74292;Laerm;62687;55.738;37.516;2023-02-13T01:54:03;66.33;58.07;72.69;;
74292;Laerm;62687;55.738;37.516;2023-02-13T01:56:54;66.23;54.80;76.06;;
74292;Laerm;62687;55.738;37.516;2023-02-13T02:02:38;66.71;57.54;76.27;;
74292;Laerm;62687;55.738;37.516;2023-02-13T02:05:27;67.37;59.55;74.59;;
74292;Laerm;62687;55.738;37.516;2023-02-13T02:08:14;66.32;58.48;72.22;;
74292;Laerm;62687;55.738;37.516;2023-02-13T02:11:04;66.67;56.74;73.22;;
74292;Laerm;62687;55.738;37.516;2023-02-13T02:13:51;66.96;56.57;75.64;;
74292;Laerm;62687;55.738;37.516;2023-02-13T02:16:35;67.30;58.94;73.94;;
74292;Laerm;62687;55.738;37.516;2023-02-13T02:32:50;67.48;56.12;78.80;;
74292;Laerm;62687;55.738;37.516;2023-02-13T02:44:53;67.72;59.93;75.53;;
74292;Laerm;62687;55.738;37.516;2023-02-13T02:47:56;68.89;61.83;74.28;;
74292;Laerm;62687;55.738;37.516;2023-02-13T02:51:20;69.28;62.30;75.95;;
74292;Laerm;62687;55.738;37.516;2023-02-13T02:54:16;69.45;64.05;76.45;;
74292;Laerm;62687;55.738;37.516;2023-02-13T02:57:25;69.45;60.92;76.40;;
74292;Laerm;62687;55.738;37.516;2023-02-13T03:00:33;69.64;62.24;76.31;;
74292;Laerm;62687;55.738;37.516;2023-02-13T03:03:38;69.50;62.32;74.88;;
74292;Laerm;62687;55.738;37.516;2023-02-13T03:06:53;69.92;62.53;75.21;;
74292;Laerm;62687;55.738;37.516;2023-02-13T03:09:42;70.50;63.77;79.98;;
74292;Laerm;62687;55.738;37.516;2023-02-13T03:15:59;71.19;65.44;75.74;;
74292;Laerm;62687;55.738;37.516;2023-02-13T03:19:01;70.21;65.07;75.73;;
74292;Laerm;62687;55.738;37.516;2023-02-13T03:22:08;71.20;64.61;77.50;;
74292;Laerm;62687;55.738;37.516;2023-02-13T03:25:15;71.00;65.47;75.19;;
74292;Laerm;62687;55.738;37.516;2023-02-13T03:28:21;71.14;66.08;76.20;;
74292;Laerm;62687;55.738;37.516;2023-02-13T03:34:22;71.56;66.49;79.22;;
74292;Laerm;62687;55.738;37.516;2023-02-13T03:37:09;71.57;65.91;76.29;;
74292;Laerm;62687;55.738;37.516;2023-02-13T03:43:15;72.27;66.50;77.25;;
74292;Laerm;62687;55.738;37.516;2023-02-13T03:46:00;71.91;67.40;76.66;;
74292;Laerm;62687;55.738;37.516;2023-02-13T03:48:46;72.04;67.29;75.81;;
74292;Laerm;62687;55.738;37.516;2023-02-13T03:51:57;72.66;66.56;76.86;;
74292;Laerm;62687;55.738;37.516;2023-02-13T03:54:57;72.70;67.34;78.13;;
74292;Laerm;62687;55.738;37.516;2023-02-13T03:58:13;72.58;68.25;76.63;;
74292;Laerm;62687;55.738;37.516;2023-02-13T04:01:21;73.17;68.39;77.88;;
74292;Laerm;62687;55.738;37.516;2023-02-13T04:04:21;73.13;68.88;79.88;;
74292;Laerm;62687;55.738;37.516;2023-02-13T04:07:12;73.13;69.03;78.23;;
74292;Laerm;62687;55.738;37.516;2023-02-13T04:10:14;72.59;67.65;78.13;;
74292;Laerm;62687;55.738;37.516;2023-02-13T04:13:06;72.90;69.38;81.65;;
74292;Laerm;62687;55.738;37.516;2023-02-13T04:15:56;72.80;68.69;76.54;;
74292;Laerm;62687;55.738;37.516;2023-02-13T04:18:44;73.29;68.45;77.24;;
74292;Laerm;62687;55.738;37.516;2023-02-13T04:21:32;72.70;67.76;85.87;;
74292;Laerm;62687;55.738;37.516;2023-02-13T04:24:16;72.72;67.51;76.95;;
74292;Laerm;62687;55.738;37.516;2023-02-13T04:27:00;72.82;68.53;78.19;;
74292;Laerm;62687;55.738;37.516;2023-02-13T04:29:44;72.28;68.58;75.87;;
74292;Laerm;62687;55.738;37.516;2023-02-13T04:32:28;72.39;67.89;79.12;;
74292;Laerm;62687;55.738;37.516;2023-02-13T04:35:12;72.27;67.60;83.27;;
74292;Laerm;62687;55.738;37.516;2023-02-13T04:37:57;72.83;69.07;76.24;;
74292;Laerm;62687;55.738;37.516;2023-02-13T04:40:41;72.16;68.61;75.30;;
74292;Laerm;62687;55.738;37.516;2023-02-13T04:43:25;71.60;67.39;75.50;;
74292;Laerm;62687;55.738;37.516;2023-02-13T04:46:09;72.09;66.89;80.98;;
74292;Laerm;62687;55.738;37.516;2023-02-13T04:48:53;72.15;68.11;76.04;;
74292;Laerm;62687;55.738;37.516;2023-02-13T04:51:35;72.39;67.64;83.22;;
74292;Laerm;62687;55.738;37.516;2023-02-13T04:54:20;72.25;68.28;80.16;;
74292;Laerm;62687;55.738;37.516;2023-02-13T04:57:04;72.51;68.23;75.82;;
74292;Laerm;62687;55.738;37.516;2023-02-13T04:59:48;72.23;67.86;76.26;;
74292;Laerm;62687;55.738;37.516;2023-02-13T05:02:32;71.87;67.69;78.14;;
74292;Laerm;62687;55.738;37.516;2023-02-13T05:05:16;72.77;68.74;84.39;;
74292;Laerm;62687;55.738;37.516;2023-02-13T05:08:02;72.41;67.53;81.40;;
74292;Laerm;62687;55.738;37.516;2023-02-13T05:10:47;72.37;67.12;78.77;;
74292;Laerm;62687;55.738;37.516;2023-02-13T05:13:31;72.51;68.80;76.33;;
74292;Laerm;62687;55.738;37.516;2023-02-13T05:16:15;72.59;68.19;75.92;;
74292;Laerm;62687;55.738;37.516;2023-02-13T05:18:59;72.57;68.65;76.88;;
74292;Laerm;62687;55.738;37.516;2023-02-13T05:21:43;72.14;67.50;85.45;;
74292;Laerm;62687;55.738;37.516;2023-02-13T05:24:46;72.02;68.18;78.87;;
74292;Laerm;62687;55.738;37.516;2023-02-13T05:27:30;71.06;67.14;80.61;;
74292;Laerm;62687;55.738;37.516;2023-02-13T05:30:14;71.83;67.85;75.71;;
74292;Laerm;62687;55.738;37.516;2023-02-13T05:32:58;72.38;69.09;90.18;;
74292;Laerm;62687;55.738;37.516;2023-02-13T05:35:42;72.00;68.54;77.15;;
74292;Laerm;62687;55.738;37.516;2023-02-13T05:38:26;72.12;68.11;81.66;;
74292;Laerm;62687;55.738;37.516;2023-02-13T05:41:10;72.02;68.79;82.91;;
74292;Laerm;62687;55.738;37.516;2023-02-13T05:43:56;72.40;68.60;80.65;;
74292;Laerm;62687;55.738;37.516;2023-02-13T05:46:42;72.83;69.43;77.42;;
74292;Laerm;62687;55.738;37.516;2023-02-13T05:49:27;73.18;67.73;90.89;;
74292;Laerm;62687;55.738;37.516;2023-02-13T05:52:11;72.75;68.88;78.98;;
74292;Laerm;62687;55.738;37.516;2023-02-13T05:54:55;73.58;69.32;85.97;;
74292;Laerm;62687;55.738;37.516;2023-02-13T05:57:39;73.13;69.87;77.91;;
74292;Laerm;62687;55.738;37.516;2023-02-13T06:00:24;73.02;69.19;77.26;;
74292;Laerm;62687;55.738;37.516;2023-02-13T06:03:08;76.19;69.49;91.02;;
74292;Laerm;62687;55.738;37.516;2023-02-13T06:05:52;73.57;69.18;88.06;;
74292;Laerm;62687;55.738;37.516;2023-02-13T06:08:37;72.31;68.67;77.65;;
74292;Laerm;62687;55.738;37.516;2023-02-13T06:11:21;72.65;68.00;79.32;;
74292;Laerm;62687;55.738;37.516;2023-02-13T06:14:05;72.51;67.43;81.06;;
74292;Laerm;62687;55.738;37.516;2023-02-13T06:16:49;71.95;68.38;75.57;;
74292;Laerm;62687;55.738;37.516;2023-02-13T06:19:33;73.11;69.43;86.34;;
74292;Laerm;62687;55.738;37.516;2023-02-13T06:22:17;72.81;68.79;82.87;;
74292;Laerm;62687;55.738;37.516;2023-02-13T06:25:01;73.14;69.17;76.80;;
74292;Laerm;62687;55.738;37.516;2023-02-13T06:27:45;73.35;68.34;88.29;;
74292;Laerm;62687;55.738;37.516;2023-02-13T06:30:30;72.92;69.67;77.66;;
74292;Laerm;62687;55.738;37.516;2023-02-13T06:33:14;72.53;68.83;76.85;;
74292;Laerm;62687;55.738;37.516;2023-02-13T06:35:58;73.20;69.07;89.49;;
74292;Laerm;62687;55.738;37.516;2023-02-13T06:38:42;73.03;69.26;83.17;;
74292;Laerm;62687;55.738;37.516;2023-02-13T06:41:26;73.04;69.07;80.53;;
74292;Laerm;62687;55.738;37.516;2023-02-13T06:44:10;72.96;68.84;87.86;;
74292;Laerm;62687;55.738;37.516;2023-02-13T06:46:54;72.93;67.67;80.22;;
74292;Laerm;62687;55.738;37.516;2023-02-13T06:49:38;72.80;68.74;79.70;;
74292;Laerm;62687;55.738;37.516;2023-02-13T06:52:22;73.03;69.02;84.40;;
74292;Laerm;62687;55.738;37.516;2023-02-13T06:55:06;72.37;68.61;75.97;;
74292;Laerm;62687;55.738;37.516;2023-02-13T06:57:51;72.35;67.98;81.46;;
74292;Laerm;62687;55.738;37.516;2023-02-13T07:00:35;72.31;67.67;76.27;;
74292;Laerm;62687;55.738;37.516;2023-02-13T07:03:20;73.00;68.09;84.94;;
74292;Laerm;62687;55.738;37.516;2023-02-13T07:06:04;73.41;68.37;82.21;;
74292;Laerm;62687;55.738;37.516;2023-02-13T07:08:49;72.74;68.87;76.37;;
74292;Laerm;62687;55.738;37.516;2023-02-13T07:11:38;72.75;69.05;86.48;;
74292;Laerm;62687;55.738;37.516;2023-02-13T07:14:23;72.65;69.24;77.22;;
74292;Laerm;62687;55.738;37.516;2023-02-13T07:17:07;73.13;68.48;77.10;;
74292;Laerm;62687;55.738;37.516;2023-02-13T07:19:53;72.76;69.85;76.12;;
74292;Laerm;62687;55.738;37.516;2023-02-13T07:22:37;72.91;68.89;79.14;;
74292;Laerm;62687;55.738;37.516;2023-02-13T07:25:21;73.30;69.55;83.05;;
74292;Laerm;62687;55.738;37.516;2023-02-13T07:28:05;73.23;69.06;80.74;;
74292;Laerm;62687;55.738;37.516;2023-02-13T07:30:50;73.57;69.40;80.09;;
74292;Laerm;62687;55.738;37.516;2023-02-13T07:33:34;73.55;70.32;77.28;;
74292;Laerm;62687;55.738;37.516;2023-02-13T07:36:19;73.87;69.36;81.04;;
74292;Laerm;62687;55.738;37.516;2023-02-13T07:39:03;73.45;69.43;81.37;;
74292;Laerm;62687;55.738;37.516;2023-02-13T07:41:47;73.97;70.51;77.55;;
74292;Laerm;62687;55.738;37.516;2023-02-13T07:44:31;73.53;69.46;77.55;;
74292;Laerm;62687;55.738;37.516;2023-02-13T07:47:16;73.60;70.22;76.96;;
74292;Laerm;62687;55.738;37.516;2023-02-13T07:50:01;73.65;70.58;76.95;;
74292;Laerm;62687;55.738;37.516;2023-02-13T07:52:56;73.48;70.02;81.39;;
74292;Laerm;62687;55.738;37.516;2023-02-13T07:55:41;74.04;70.88;81.40;;
74292;Laerm;62687;55.738;37.516;2023-02-13T07:58:25;73.75;70.14;76.82;;
74292;Laerm;62687;55.738;37.516;2023-02-13T08:01:11;74.08;70.73;78.94;;
74292;Laerm;62687;55.738;37.516;2023-02-13T08:03:56;73.94;69.05;86.71;;
74292;Laerm;62687;55.738;37.516;2023-02-13T08:06:40;73.69;68.47;77.38;;
74292;Laerm;62687;55.738;37.516;2023-02-13T08:09:25;73.32;69.70;76.68;;
74292;Laerm;62687;55.738;37.516;2023-02-13T08:12:28;73.32;68.53;80.31;;
74292;Laerm;62687;55.738;37.516;2023-02-13T08:15:14;73.71;70.13;77.54;;
74292;Laerm;62687;55.738;37.516;2023-02-13T08:17:58;73.69;69.19;79.05;;
74292;Laerm;62687;55.738;37.516;2023-02-13T08:20:42;73.00;67.15;77.97;;
74292;Laerm;62687;55.738;37.516;2023-02-13T08:23:26;72.76;69.34;82.99;;
74292;Laerm;62687;55.738;37.516;2023-02-13T08:26:11;72.68;68.83;76.10;;
74292;Laerm;62687;55.738;37.516;2023-02-13T08:28:55;73.11;69.42;76.55;;
74292;Laerm;62687;55.738;37.516;2023-02-13T08:31:40;73.43;69.09;87.37;;
74292;Laerm;62687;55.738;37.516;2023-02-13T08:34:24;72.91;68.60;76.98;;
74292;Laerm;62687;55.738;37.516;2023-02-13T08:37:08;73.68;70.43;77.30;;
74292;Laerm;62687;55.738;37.516;2023-02-13T08:39:52;73.57;70.04;77.28;;
74292;Laerm;62687;55.738;37.516;2023-02-13T08:42:36;73.60;69.31;77.92;;
74292;Laerm;62687;55.738;37.516;2023-02-13T08:45:21;73.85;69.54;77.84;;
74292;Laerm;62687;55.738;37.516;2023-02-13T08:48:05;73.35;68.90;76.88;;
74292;Laerm;62687;55.738;37.516;2023-02-13T08:50:50;73.75;69.82;77.25;;
74292;Laerm;62687;55.738;37.516;2023-02-13T08:53:35;73.90;68.74;80.77;;
74292;Laerm;62687;55.738;37.516;2023-02-13T08:56:19;73.59;69.60;79.09;;
74292;Laerm;62687;55.738;37.516;2023-02-13T08:59:03;73.91;69.74;81.53;;
74292;Laerm;62687;55.738;37.516;2023-02-13T09:01:47;73.78;69.38;85.03;;
74292;Laerm;62687;55.738;37.516;2023-02-13T09:04:31;73.33;69.68;79.89;;
74292;Laerm;62687;55.738;37.516;2023-02-13T09:07:16;73.48;70.41;77.26;;
74292;Laerm;62687;55.738;37.516;2023-02-13T09:10:00;73.19;69.89;76.45;;
74292;Laerm;62687;55.738;37.516;2023-02-13T09:12:51;73.71;70.15;77.37;;
74292;Laerm;62687;55.738;37.516;2023-02-13T09:15:37;73.39;69.79;77.06;;
74292;Laerm;62687;55.738;37.516;2023-02-13T09:18:23;73.28;68.76;77.28;;
74292;Laerm;62687;55.738;37.516;2023-02-13T09:21:10;73.64;69.63;84.31;;
74292;Laerm;62687;55.738;37.516;2023-02-13T09:23:54;73.38;70.10;82.56;;
74292;Laerm;62687;55.738;37.516;2023-02-13T09:26:38;73.90;69.71;87.50;;
74292;Laerm;62687;55.738;37.516;2023-02-13T09:29:22;73.93;70.24;77.06;;
74292;Laerm;62687;55.738;37.516;2023-02-13T09:32:06;73.86;70.53;77.21;;
74292;Laerm;62687;55.738;37.516;2023-02-13T09:34:50;73.59;70.32;82.41;;
74292;Laerm;62687;55.738;37.516;2023-02-13T09:37:34;73.71;70.31;77.37;;
74292;Laerm;62687;55.738;37.516;2023-02-13T09:40:29;74.01;71.01;77.68;;
74292;Laerm;62687;55.738;37.516;2023-02-13T09:43:35;73.76;69.59;77.27;;
74292;Laerm;62687;55.738;37.516;2023-02-13T09:49:28;74.21;71.00;77.69;;
74292;Laerm;62687;55.738;37.516;2023-02-13T09:52:13;73.59;70.08;76.56;;
74292;Laerm;62687;55.738;37.516;2023-02-13T09:54:57;74.08;70.50;80.99;;
74292;Laerm;62687;55.738;37.516;2023-02-13T09:57:46;73.48;69.28;80.24;;
74292;Laerm;62687;55.738;37.516;2023-02-13T10:00:38;73.10;69.20;85.23;;
74292;Laerm;62687;55.738;37.516;2023-02-13T10:03:30;73.04;69.65;77.23;;
74292;Laerm;62687;55.738;37.516;2023-02-13T10:06:21;73.16;69.98;78.35;;
74292;Laerm;62687;55.738;37.516;2023-02-13T10:15:22;73.15;68.35;77.47;;
74292;Laerm;62687;55.738;37.516;2023-02-13T10:18:20;73.25;68.65;76.97;;
74292;Laerm;62687;55.738;37.516;2023-02-13T10:21:05;73.27;69.48;76.10;;
74292;Laerm;62687;55.738;37.516;2023-02-13T10:23:57;73.28;69.16;77.42;;
74292;Laerm;62687;55.738;37.516;2023-02-13T10:26:43;73.70;69.57;78.28;;
74292;Laerm;62687;55.738;37.516;2023-02-13T10:36:23;73.20;68.88;77.66;;
74292;Laerm;62687;55.738;37.516;2023-02-13T10:42:20;72.73;68.78;76.08;;
74292;Laerm;62687;55.738;37.516;2023-02-13T10:45:39;74.36;68.48;88.19;;
74292;Laerm;62687;55.738;37.516;2023-02-13T10:51:53;73.00;69.13;79.83;;
74292;Laerm;62687;55.738;37.516;2023-02-13T11:01:26;73.01;69.01;76.46;;
74292;Laerm;62687;55.738;37.516;2023-02-13T11:04:17;73.22;69.40;77.43;;
74292;Laerm;62687;55.738;37.516;2023-02-13T11:07:04;73.89;70.48;78.29;;
74292;Laerm;62687;55.738;37.516;2023-02-13T11:09:59;73.72;70.48;77.30;;
74292;Laerm;62687;55.738;37.516;2023-02-13T11:12:47;73.97;70.66;80.60;;
74292;Laerm;62687;55.738;37.516;2023-02-13T11:15:32;73.50;69.61;78.07;;
74292;Laerm;62687;55.738;37.516;2023-02-13T11:18:21;73.87;70.36;76.91;;
74292;Laerm;62687;55.738;37.516;2023-02-13T11:21:19;74.35;70.43;77.82;;
74292;Laerm;62687;55.738;37.516;2023-02-13T11:24:04;73.94;70.11;78.25;;
74292;Laerm;62687;55.738;37.516;2023-02-13T11:26:56;73.84;70.10;81.95;;
74292;Laerm;62687;55.738;37.516;2023-02-13T11:29:56;74.57;70.81;82.28;;
74292;Laerm;62687;55.738;37.516;2023-02-13T11:32:40;74.04;70.98;81.45;;
74292;Laerm;62687;55.738;37.516;2023-02-13T11:35:30;74.20;70.01;77.36;;
74292;Laerm;62687;55.738;37.516;2023-02-13T11:41:13;73.92;70.58;78.02;;
74292;Laerm;62687;55.738;37.516;2023-02-13T11:44:00;73.94;70.77;77.46;;
74292;Laerm;62687;55.738;37.516;2023-02-13T11:46:47;74.49;70.92;82.54;;
74292;Laerm;62687;55.738;37.516;2023-02-13T11:49:35;74.34;70.93;78.75;;
74292;Laerm;62687;55.738;37.516;2023-02-13T11:52:35;74.14;71.00;77.17;;
74292;Laerm;62687;55.738;37.516;2023-02-13T11:55:34;73.98;70.82;78.96;;
74292;Laerm;62687;55.738;37.516;2023-02-13T11:58:25;74.10;69.74;78.08;;
74292;Laerm;62687;55.738;37.516;2023-02-13T12:01:24;74.32;70.56;81.05;;
74292;Laerm;62687;55.738;37.516;2023-02-13T12:04:17;74.24;71.08;78.62;;
74292;Laerm;62687;55.738;37.516;2023-02-13T12:07:20;73.42;70.42;77.33;;
74292;Laerm;62687;55.738;37.516;2023-02-13T12:10:22;72.70;69.17;77.42;;
74292;Laerm;62687;55.738;37.516;2023-02-13T12:13:13;72.37;69.25;77.64;;
74292;Laerm;62687;55.738;37.516;2023-02-13T12:16:09;72.97;69.35;81.71;;
74292;Laerm;62687;55.738;37.516;2023-02-13T12:18:59;72.71;69.92;79.73;;
74292;Laerm;62687;55.738;37.516;2023-02-13T12:28:05;73.36;68.90;85.45;;
74292;Laerm;62687;55.738;37.516;2023-02-13T12:31:16;73.11;69.82;78.24;;
74292;Laerm;62687;55.738;37.516;2023-02-13T12:34:22;73.12;69.82;82.33;;
74292;Laerm;62687;55.738;37.516;2023-02-13T12:37:18;73.08;69.71;84.40;;
74292;Laerm;62687;55.738;37.516;2023-02-13T12:56:11;73.26;69.99;83.11;;
74292;Laerm;62687;55.738;37.516;2023-02-13T13:04:56;73.23;69.07;76.61;;
74292;Laerm;62687;55.738;37.516;2023-02-13T13:14:23;74.07;70.70;77.51;;
74292;Laerm;62687;55.738;37.516;2023-02-13T13:24:10;73.79;70.49;81.18;;
74292;Laerm;62687;55.738;37.516;2023-02-13T13:26:34;73.47;70.13;78.98;;
74292;Laerm;62687;55.738;37.516;2023-02-13T13:29:25;73.80;70.26;81.30;;
74292;Laerm;62687;55.738;37.516;2023-02-13T13:32:13;72.97;69.59;77.12;;
74292;Laerm;62687;55.738;37.516;2023-02-13T13:34:59;72.12;68.63;76.02;;
74292;Laerm;62687;55.738;37.516;2023-02-13T13:37:50;72.26;68.64;79.34;;
74292;Laerm;62687;55.738;37.516;2023-02-13T13:40:51;72.34;68.19;76.91;;
74292;Laerm;62687;55.738;37.516;2023-02-13T13:44:00;71.75;68.12;77.03;;
74292;Laerm;62687;55.738;37.516;2023-02-13T13:49:57;72.16;68.70;77.12;;
74292;Laerm;62687;55.738;37.516;2023-02-13T13:53:07;72.51;68.97;77.01;;
74292;Laerm;62687;55.738;37.516;2023-02-13T13:58:43;71.57;67.92;75.04;;
74292;Laerm;62687;55.738;37.516;2023-02-13T14:01:29;72.97;69.02;85.50;;
74292;Laerm;62687;55.738;37.516;2023-02-13T14:07:23;72.20;69.40;76.32;;
74292;Laerm;62687;55.738;37.516;2023-02-13T14:13:03;72.21;69.17;79.08;;
74292;Laerm;62687;55.738;37.516;2023-02-13T14:15:51;72.21;69.34;74.86;;
74292;Laerm;62687;55.738;37.516;2023-02-13T14:18:36;72.32;69.16;76.57;;
74292;Laerm;62687;55.738;37.516;2023-02-13T14:21:24;73.24;68.85;85.20;;
74292;Laerm;62687;55.738;37.516;2023-02-13T14:24:10;72.22;68.74;78.49;;
74292;Laerm;62687;55.738;37.516;2023-02-13T14:26:55;72.25;69.52;75.04;;
74292;Laerm;62687;55.738;37.516;2023-02-13T14:29:46;71.90;68.48;77.61;;
74292;Laerm;62687;55.738;37.516;2023-02-13T14:32:31;72.00;68.40;74.75;;
74292;Laerm;62687;55.738;37.516;2023-02-13T14:35:29;72.66;68.60;76.10;;
74292;Laerm;62687;55.738;37.516;2023-02-13T14:38:26;72.94;69.51;75.67;;
74292;Laerm;62687;55.738;37.516;2023-02-13T14:41:43;71.96;68.04;80.37;;
74292;Laerm;62687;55.738;37.516;2023-02-13T14:44:46;71.88;68.58;83.41;;
74292;Laerm;62687;55.738;37.516;2023-02-13T14:47:39;71.75;68.06;78.37;;
74292;Laerm;62687;55.738;37.516;2023-02-13T14:50:44;72.29;67.87;84.24;;
74292;Laerm;62687;55.738;37.516;2023-02-13T14:53:44;72.13;68.88;76.25;;
74292;Laerm;62687;55.738;37.516;2023-02-13T14:56:30;71.81;69.02;75.07;;
74292;Laerm;62687;55.738;37.516;2023-02-13T14:59:28;72.03;68.15;77.71;;
74292;Laerm;62687;55.738;37.516;2023-02-13T15:02:26;71.46;67.73;76.67;;
74292;Laerm;62687;55.738;37.516;2023-02-13T15:05:17;71.60;68.08;77.94;;
74292;Laerm;62687;55.738;37.516;2023-02-13T15:08:12;71.51;67.75;75.10;;
74292;Laerm;62687;55.738;37.516;2023-02-13T15:10:57;72.68;68.96;84.30;;
74292;Laerm;62687;55.738;37.516;2023-02-13T15:13:41;71.78;68.62;75.81;;
74292;Laerm;62687;55.738;37.516;2023-02-13T15:16:25;71.84;67.30;80.44;;
74292;Laerm;62687;55.738;37.516;2023-02-13T15:19:18;72.24;67.88;77.94;;
74292;Laerm;62687;55.738;37.516;2023-02-13T15:22:04;73.08;69.13;82.86;;
74292;Laerm;62687;55.738;37.516;2023-02-13T15:24:49;72.76;69.37;79.59;;
74292;Laerm;62687;55.738;37.516;2023-02-13T15:27:40;72.47;69.08;77.25;;
74292;Laerm;62687;55.738;37.516;2023-02-13T15:30:26;72.58;68.09;85.31;;
74292;Laerm;62687;55.738;37.516;2023-02-13T15:33:19;72.62;69.32;77.30;;
74292;Laerm;62687;55.738;37.516;2023-02-13T15:36:05;72.60;68.96;76.50;;
74292;Laerm;62687;55.738;37.516;2023-02-13T15:38:49;72.01;69.31;74.86;;
74292;Laerm;62687;55.738;37.516;2023-02-13T15:41:41;72.39;68.60;76.84;;
74292;Laerm;62687;55.738;37.516;2023-02-13T15:44:30;72.69;69.54;76.58;;
74292;Laerm;62687;55.738;37.516;2023-02-13T15:47:31;72.18;69.14;75.83;;
74292;Laerm;62687;55.738;37.516;2023-02-13T15:50:29;72.10;69.21;74.88;;
74292;Laerm;62687;55.738;37.516;2023-02-13T15:53:14;71.81;68.19;78.18;;
74292;Laerm;62687;55.738;37.516;2023-02-13T15:56:03;70.85;67.29;75.66;;
74292;Laerm;62687;55.738;37.516;2023-02-13T15:58:48;70.67;66.22;75.98;;
74292;Laerm;62687;55.738;37.516;2023-02-13T16:01:33;70.76;67.43;74.46;;
74292;Laerm;62687;55.738;37.516;2023-02-13T16:04:18;71.30;67.80;77.80;;
74292;Laerm;62687;55.738;37.516;2023-02-13T16:07:08;70.19;66.21;80.83;;
74292;Laerm;62687;55.738;37.516;2023-02-13T16:10:32;70.71;67.42;79.32;;
74292;Laerm;62687;55.738;37.516;2023-02-13T16:13:17;71.63;68.08;77.84;;
74292;Laerm;62687;55.738;37.516;2023-02-13T16:16:08;71.54;68.30;76.78;;
74292;Laerm;62687;55.738;37.516;2023-02-13T16:18:53;74.47;68.18;91.24;;
74292;Laerm;62687;55.738;37.516;2023-02-13T16:21:37;72.42;68.47;80.54;;
74292;Laerm;62687;55.738;37.516;2023-02-13T16:24:22;72.36;68.55;88.91;;
74292;Laerm;62687;55.738;37.516;2023-02-13T16:27:11;72.06;68.75;80.92;;
74292;Laerm;62687;55.738;37.516;2023-02-13T16:29:59;72.08;69.25;75.92;;
74292;Laerm;62687;55.738;37.516;2023-02-13T16:32:43;72.40;69.11;84.13;;
74292;Laerm;62687;55.738;37.516;2023-02-13T16:35:29;72.00;68.60;77.79;;
74292;Laerm;62687;55.738;37.516;2023-02-13T16:38:41;72.42;69.08;75.42;;
74292;Laerm;62687;55.738;37.516;2023-02-13T16:41:30;72.81;68.87;85.02;;
74292;Laerm;62687;55.738;37.516;2023-02-13T16:44:40;72.14;68.56;83.14;;
74292;Laerm;62687;55.738;37.516;2023-02-13T16:47:24;72.36;68.12;84.40;;
74292;Laerm;62687;55.738;37.516;2023-02-13T16:50:14;71.75;68.19;76.93;;
74292;Laerm;62687;55.738;37.516;2023-02-13T16:53:02;72.31;68.59;83.82;;
74292;Laerm;62687;55.738;37.516;2023-02-13T16:55:56;72.24;69.10;76.06;;
74292;Laerm;62687;55.738;37.516;2023-02-13T16:58:40;72.03;68.11;84.46;;
74292;Laerm;62687;55.738;37.516;2023-02-13T17:01:24;71.35;67.95;76.16;;
74292;Laerm;62687;55.738;37.516;2023-02-13T17:04:21;71.80;67.56;78.02;;
74292;Laerm;62687;55.738;37.516;2023-02-13T17:07:11;72.40;68.92;77.83;;
74292;Laerm;62687;55.738;37.516;2023-02-13T17:09:58;72.42;68.62;76.33;;
74292;Laerm;62687;55.738;37.516;2023-02-13T17:12:43;71.87;68.57;79.18;;
74292;Laerm;62687;55.738;37.516;2023-02-13T17:15:29;72.39;69.16;78.97;;
74292;Laerm;62687;55.738;37.516;2023-02-13T17:18:14;71.96;67.66;75.82;;
74292;Laerm;62687;55.738;37.516;2023-02-13T17:20:58;72.43;68.75;77.83;;
74292;Laerm;62687;55.738;37.516;2023-02-13T17:23:42;72.42;69.20;76.14;;
74292;Laerm;62687;55.738;37.516;2023-02-13T17:26:26;72.85;69.00;78.81;;
74292;Laerm;62687;55.738;37.516;2023-02-13T17:29:11;72.94;69.61;77.07;;
74292;Laerm;62687;55.738;37.516;2023-02-13T17:31:59;72.49;69.55;76.58;;